Lebanon, OR

2:18 PM PDT on October 23, 2014 (GMT -0700)
McMinnville Municipal | Change Station
CLOSE
Current Station
Airport
Location: McMinnville,
Elevation: 157 ft
Nearby Weather Stations

Elev 157 ft 45.19 °N, 123.14 °W | Updated 25 minutes ago

Overcast
Overcast
54 °F
Feels Like 54 °F
N
8
Wind Variable Wind from South

Today
High -- | Low -- °F
--% Chance of Precip.
Yesterday
High -- | Low -- °F
Precip. -- in
7:37 AM 6:13 PM
Waning Crescent, 0% visible
Pressure 29.92 in
Visibility 6.0 miles
Clouds Mostly Cloudy 6000 ft
Overcast 7000 ft
Dew Point 51 °F
Humidity 90%
Rainfall 0.41 in
Snow Depth Not available.
UV 1 out of 12
Pollen .30 out of 12
PM2.5 Good
Flu Activity Sporadic
METAR KMMV 232053Z AUTO 19007KT 6SM -RA BR BKN060 OVC070 12/11 A2992 RMK AO2 RAB10 SLP130 P0009 60019 T01220106 52010 $

More Conditions Fewer Conditions

Pressure 29.92 in
Visibility 6.0 miles
Clouds Mostly Cloudy 6000 ft
Overcast 7000 ft
Dew Point 51 °F
Humidity 90%
Rainfall 0.41 in
Snow Depth Not available.
UV 1 out of 12
Pollen .30 out of 12
PM2.5 Good
Flu Activity Sporadic
METAR KMMV 232053Z AUTO 19007KT 6SM -RA BR BKN060 OVC070 12/11 A2992 RMK AO2 RAB10 SLP130 P0009 60019 T01220106 52010 $

More Conditions Fewer Conditions

10-Day Weather Forecast

Almanac

Astronomy

Oct. 23, 2014 Rise Set
Actual Time 7:37 AM PDT 6:13 PM PDT
Civil Twilight 7:07 AM PDT 6:43 PM PDT
Nautical Twilight 6:33 AM PDT 7:17 PM PDT
Astronomical Twilight 5:59 AM PDT 7:51 PM PDT
Moon 7:21 AM PDT 6:18 PM PDT
Length of Visible Light 11h 36m
Length of Day
10h 36m
Tomorrow will be 2m 53s shorter.
Waning Crescent, 0% of the Moon is Illuminated
Today
Waning Crescent
Oct 23
New
Oct 30
First Quarter
Nov 6
Full
Nov 14
Last Quarter

Today's Extremes

State Highs State Lows

Community

WunderPhotos

Upload Photos

1,764,372 photos uploaded!

WunderBlogs® & News

Nearby

Air Quality

  Air Quality AQ Index Pollutant
Yesterday Good
PM2.5
Current Good
PM2.5
Thursday Good
PM2.5
Friday Good
PM2.5

Snow Depth

Station Depth Elevation
Daly Lake 0 in 3600 ft
Marion Forks 0 in 2600 ft
Santiam Junction 0 in 3750 ft
Hogg Pass 1 in 4760 ft
Mckenzie 0 in 4800 ft

Earthquake Activity

City Distance Mag. Time & Date
No recent earthquake activity has been reported nearby.
Minimum magnitude displayed is 2.5.

Coastal Water Temperatures

Place Temperature
No Stations Reporting

Nearby Weather Stations